Time;durP1;ratioP1;P1;durP2;ratioP2;P2;SDS_P1;SDS_P2;PMS_P1;PMS_P2;Temp;Humidity;BMP_temperature;BMP_pressure;BME280_temperature;BME280_humidity;BME280_pressure;Samples;Min_cycle;Max_cycle;Signal;HPM_P1;HPM_P2
2020/12/13 00:00:46;;;;;;;;;;;18.90;40.60;;;;;;491695;239;2181;-54
2020/12/13 00:02:47;;;;;;;;;;;18.80;40.70;;;;;;491620;240;996;-54
2020/12/13 00:04:49;;;;;;;;;;;18.80;40.70;;;;;;491818;240;1067;-54
2020/12/13 00:06:50;;;;;;;;;;;18.80;40.80;;;;;;491945;240;1038;-54
2020/12/13 00:08:51;;;;;;;;;;;18.80;40.90;;;;;;491845;240;1046;-54
2020/12/13 00:10:54;;;;;;;;;;;18.70;40.90;;;;;;491953;240;1013;-54
2020/12/13 00:12:54;;;;;;;;;;;18.70;40.90;;;;;;491626;240;2281;-54
2020/12/13 00:14:55;;;;;;;;;;;18.70;41.00;;;;;;491994;240;1100;-53
2020/12/13 00:16:56;;;;;;;;;;;18.70;41.00;;;;;;491619;240;1186;-54
2020/12/13 00:18:58;;;;;;;;;;;18.70;41.10;;;;;;491672;240;1082;-54
2020/12/13 00:20:59;;;;;;;;;;;18.60;41.00;;;;;;491691;240;2195;-54
2020/12/13 00:23:00;;;;;;;;;;;18.60;41.10;;;;;;491664;240;1094;-54
2020/12/13 00:25:01;;;;;;;;;;;18.60;41.10;;;;;;491671;240;1091;-54
2020/12/13 00:27:03;;;;;;;;;;;18.60;41.20;;;;;;491629;240;1140;-53
2020/12/13 00:29:04;;;;;;;;;;;18.50;41.20;;;;;;491862;240;1159;-54
2020/12/13 00:31:05;;;;;;;;;;;18.50;41.20;;;;;;491632;240;1033;-53
2020/12/13 00:33:06;;;;;;;;;;;18.50;41.20;;;;;;491625;240;1262;-53
2020/12/13 00:35:08;;;;;;;;;;;18.50;41.20;;;;;;491642;240;968;-54
2020/12/13 00:37:09;;;;;;;;;;;18.50;41.30;;;;;;491661;240;1230;-53
2020/12/13 00:39:10;;;;;;;;;;;18.50;41.30;;;;;;491777;240;1199;-53
2020/12/13 00:41:12;;;;;;;;;;;18.40;41.30;;;;;;491965;240;2196;-54
2020/12/13 00:43:13;;;;;;;;;;;18.40;41.30;;;;;;491589;240;1285;-53
2020/12/13 00:45:14;;;;;;;;;;;18.40;41.40;;;;;;491596;240;1236;-54
2020/12/13 00:47:15;;;;;;;;;;;18.40;41.40;;;;;;491549;240;1234;-54
2020/12/13 00:49:17;;;;;;;;;;;18.40;41.40;;;;;;491801;240;1087;-54
2020/12/13 00:51:18;;;;;;;;;;;18.40;41.50;;;;;;491621;240;1220;-54
2020/12/13 00:53:19;;;;;;;;;;;18.30;41.40;;;;;;491587;240;1254;-54
2020/12/13 00:55:21;;;;;;;;;;;18.30;41.40;;;;;;491585;240;1076;-54
2020/12/13 00:57:24;;;;;;;;;;;18.30;41.40;;;;;;491532;240;1309;-54
2020/12/13 00:59:23;;;;;;;;;;;18.30;41.50;;;;;;491689;241;1545;-54
2020/12/13 01:01:24;;;;;;;;;;;18.30;41.50;;;;;;491586;240;2167;-54
2020/12/13 01:03:26;;;;;;;;;;;18.30;41.50;;;;;;491591;240;1430;-54
2020/12/13 01:05:27;;;;;;;;;;;18.30;41.50;;;;;;491922;240;981;-53
2020/12/13 01:07:28;;;;;;;;;;;18.30;41.60;;;;;;491593;240;1311;-54
2020/12/13 01:09:29;;;;;;;;;;;18.20;41.50;;;;;;491634;240;1090;-53
2020/12/13 01:11:31;;;;;;;;;;;18.20;41.60;;;;;;491775;240;1021;-54
2020/12/13 01:13:32;;;;;;;;;;;18.20;41.60;;;;;;491782;240;1085;-54
2020/12/13 01:15:34;;;;;;;;;;;18.20;41.60;;;;;;491952;240;1078;-54
2020/12/13 01:17:35;;;;;;;;;;;18.20;41.70;;;;;;491618;238;1948;-53
2020/12/13 01:19:36;;;;;;;;;;;18.20;41.70;;;;;;492084;240;1072;-54
2020/12/13 01:21:38;;;;;;;;;;;18.20;41.70;;;;;;491743;240;2184;-54
2020/12/13 01:23:38;;;;;;;;;;;18.20;41.70;;;;;;491650;240;2374;-53
2020/12/13 01:25:40;;;;;;;;;;;18.20;41.70;;;;;;491914;240;1128;-53
2020/12/13 01:27:41;;;;;;;;;;;18.20;41.70;;;;;;491645;240;1243;-53
2020/12/13 01:29:43;;;;;;;;;;;18.10;41.70;;;;;;491812;240;1076;-54
2020/12/13 01:31:45;;;;;;;;;;;18.10;41.70;;;;;;491703;240;1070;-53
2020/12/13 01:33:46;;;;;;;;;;;18.10;41.70;;;;;;491677;240;1169;-54
2020/12/13 01:35:47;;;;;;;;;;;18.10;41.70;;;;;;491630;240;1031;-54
2020/12/13 01:37:49;;;;;;;;;;;18.10;41.70;;;;;;491831;240;1053;-53
2020/12/13 01:39:50;;;;;;;;;;;18.10;41.80;;;;;;491688;240;1045;-54
2020/12/13 01:41:51;;;;;;;;;;;18.10;41.80;;;;;;491641;240;2202;-54
2020/12/13 01:43:52;;;;;;;;;;;18.10;41.80;;;;;;491762;240;1055;-54
2020/12/13 01:45:54;;;;;;;;;;;18.10;41.80;;;;;;491688;240;1081;-54
2020/12/13 01:47:55;;;;;;;;;;;18.10;41.80;;;;;;491648;240;1129;-53
2020/12/13 01:49:56;;;;;;;;;;;18.10;41.80;;;;;;491660;240;1024;-54
2020/12/13 01:52:07;;;;;;;;;;;18.10;41.80;;;;;;491641;240;1057;-53
2020/12/13 01:54:05;;;;;;;;;;;18.10;41.90;;;;;;491616;242;2115;-53
2020/12/13 01:56:06;;;;;;;;;;;18.00;41.80;;;;;;491725;240;1080;-54
2020/12/13 01:58:08;;;;;;;;;;;18.00;41.80;;;;;;491886;240;1057;-54
2020/12/13 02:00:09;;;;;;;;;;;18.00;41.80;;;;;;491666;240;2199;-53
2020/12/13 02:02:10;;;;;;;;;;;18.00;41.80;;;;;;491621;240;1204;-54
2020/12/13 02:04:13;;;;;;;;;;;18.00;41.80;;;;;;491661;240;1082;-54
2020/12/13 02:06:13;;;;;;;;;;;18.00;41.80;;;;;;491643;242;2494;-54
2020/12/13 02:08:14;;;;;;;;;;;18.00;41.90;;;;;;491660;240;1067;-54
2020/12/13 02:10:16;;;;;;;;;;;18.00;41.90;;;;;;491794;240;1055;-54
2020/12/13 02:12:17;;;;;;;;;;;18.00;41.90;;;;;;491938;240;1096;-54
2020/12/13 02:14:18;;;;;;;;;;;18.00;41.80;;;;;;491672;240;1050;-54
2020/12/13 02:16:20;;;;;;;;;;;18.00;41.80;;;;;;491685;240;1052;-54
2020/12/13 02:18:21;;;;;;;;;;;18.10;41.80;;;;;;491859;240;1183;-54
2020/12/13 02:20:22;;;;;;;;;;;18.10;41.70;;;;;;491665;240;2191;-54
2020/12/13 02:22:23;;;;;;;;;;;18.10;41.70;;;;;;491901;240;1134;-54
2020/12/13 02:24:25;;;;;;;;;;;18.10;41.70;;;;;;491641;240;1177;-54
2020/12/13 02:26:26;;;;;;;;;;;18.20;41.70;;;;;;491866;240;1059;-53
2020/12/13 02:28:27;;;;;;;;;;;18.20;41.60;;;;;;491838;240;1180;-53
2020/12/13 02:30:28;;;;;;;;;;;18.20;41.50;;;;;;491793;240;1057;-54
2020/12/13 02:32:30;;;;;;;;;;;18.20;41.50;;;;;;491641;240;1143;-54
2020/12/13 02:34:31;;;;;;;;;;;18.20;41.50;;;;;;491622;240;1195;-54
2020/12/13 02:36:32;;;;;;;;;;;18.30;41.50;;;;;;491615;240;996;-54
2020/12/13 02:38:34;;;;;;;;;;;18.30;41.40;;;;;;491560;240;1372;-54
2020/12/13 02:40:35;;;;;;;;;;;18.30;41.40;;;;;;491609;240;2188;-54
2020/12/13 02:42:37;;;;;;;;;;;18.30;41.30;;;;;;491681;240;1129;-54
2020/12/13 02:44:37;;;;;;;;;;;18.30;41.30;;;;;;491704;240;2428;-54
2020/12/13 02:46:39;;;;;;;;;;;18.40;41.30;;;;;;491651;240;1037;-54
2020/12/13 02:48:40;;;;;;;;;;;18.40;41.30;;;;;;491617;240;1172;-54
2020/12/13 02:50:41;;;;;;;;;;;18.40;41.20;;;;;;491600;240;1064;-54
2020/12/13 02:52:42;;;;;;;;;;;18.40;41.20;;;;;;491608;240;1272;-54
2020/12/13 02:54:44;;;;;;;;;;;18.40;41.20;;;;;;491854;240;1054;-54
2020/12/13 02:56:45;;;;;;;;;;;18.50;41.20;;;;;;491612;240;1003;-53
2020/12/13 02:58:46;;;;;;;;;;;18.50;41.10;;;;;;491603;240;1402;-54
2020/12/13 03:00:48;;;;;;;;;;;18.50;41.10;;;;;;491603;240;2185;-54
2020/12/13 03:02:49;;;;;;;;;;;18.50;41.00;;;;;;491573;240;1170;-54
2020/12/13 03:04:50;;;;;;;;;;;18.50;41.00;;;;;;491644;240;1204;-54
2020/12/13 03:06:51;;;;;;;;;;;18.60;41.00;;;;;;491654;240;1042;-54
2020/12/13 03:08:53;;;;;;;;;;;18.60;41.00;;;;;;491809;240;1192;-54
2020/12/13 03:10:54;;;;;;;;;;;18.60;41.00;;;;;;491865;240;1191;-54
2020/12/13 03:12:55;;;;;;;;;;;18.60;41.00;;;;;;491621;240;1398;-54
2020/12/13 03:14:57;;;;;;;;;;;18.60;40.90;;;;;;491598;240;1104;-54
2020/12/13 03:16:58;;;;;;;;;;;18.70;41.00;;;;;;491568;240;1129;-54
2020/12/13 03:18:59;;;;;;;;;;;18.70;40.90;;;;;;491839;240;1250;-54
2020/12/13 03:21:00;;;;;;;;;;;18.70;40.90;;;;;;491573;240;2180;-54
2020/12/13 03:23:02;;;;;;;;;;;18.70;40.80;;;;;;491743;240;1069;-54
2020/12/13 03:25:03;;;;;;;;;;;18.70;40.80;;;;;;491824;240;1208;-53
2020/12/13 03:27:04;;;;;;;;;;;18.70;40.80;;;;;;491628;240;1129;-54
2020/12/13 03:29:05;;;;;;;;;;;18.70;40.70;;;;;;491660;240;1187;-54
2020/12/13 03:31:07;;;;;;;;;;;18.80;40.80;;;;;;491587;240;1054;-54
2020/12/13 03:33:08;;;;;;;;;;;18.80;40.70;;;;;;491868;240;1053;-54
2020/12/13 03:35:09;;;;;;;;;;;18.80;40.70;;;;;;491594;240;1496;-54
2020/12/13 03:37:11;;;;;;;;;;;18.80;40.70;;;;;;491648;240;1104;-54
2020/12/13 03:39:12;;;;;;;;;;;18.80;40.60;;;;;;491636;240;1082;-54
2020/12/13 03:41:13;;;;;;;;;;;18.90;40.70;;;;;;491651;240;2254;-54
2020/12/13 03:43:14;;;;;;;;;;;18.90;40.60;;;;;;491744;240;1051;-54
2020/12/13 03:45:16;;;;;;;;;;;18.90;40.60;;;;;;491661;240;1224;-54
2020/12/13 03:47:17;;;;;;;;;;;18.90;40.60;;;;;;491637;240;1128;-54
2020/12/13 03:49:18;;;;;;;;;;;18.90;40.60;;;;;;491639;240;1194;-54
2020/12/13 03:51:20;;;;;;;;;;;18.90;40.50;;;;;;491598;240;1013;-53
2020/12/13 03:53:21;;;;;;;;;;;18.90;40.50;;;;;;491919;240;1057;-53
2020/12/13 03:55:22;;;;;;;;;;;18.90;40.50;;;;;;491682;240;1108;-54
2020/12/13 03:57:23;;;;;;;;;;;19.00;40.50;;;;;;491578;240;1274;-54
2020/12/13 03:59:25;;;;;;;;;;;19.00;40.50;;;;;;491610;240;1062;-54
2020/12/13 04:01:26;;;;;;;;;;;19.00;40.40;;;;;;491955;240;2199;-54
2020/12/13 04:03:27;;;;;;;;;;;19.00;40.40;;;;;;491628;240;1088;-54
2020/12/13 04:05:28;;;;;;;;;;;19.00;40.40;;;;;;491684;240;1193;-54
2020/12/13 04:07:30;;;;;;;;;;;19.00;40.40;;;;;;491998;240;1085;-54
2020/12/13 04:09:31;;;;;;;;;;;19.00;40.40;;;;;;491677;240;968;-54
2020/12/13 04:11:32;;;;;;;;;;;19.00;40.40;;;;;;491815;240;1086;-54
2020/12/13 04:13:34;;;;;;;;;;;19.00;40.40;;;;;;491520;240;1033;-54
2020/12/13 04:15:35;;;;;;;;;;;19.10;40.40;;;;;;491604;240;1060;-54
2020/12/13 04:17:36;;;;;;;;;;;19.10;40.40;;;;;;491708;240;1091;-54
2020/12/13 04:19:37;;;;;;;;;;;19.10;40.30;;;;;;491770;240;1167;-54
2020/12/13 04:21:39;;;;;;;;;;;19.10;40.30;;;;;;491814;240;2200;-54
2020/12/13 04:23:40;;;;;;;;;;;19.10;40.30;;;;;;491643;240;1046;-54
2020/12/13 04:25:43;;;;;;;;;;;19.10;40.30;;;;;;491644;240;1093;-54
2020/12/13 04:27:45;;;;;;;;;;;19.20;40.30;;;;;;491515;240;1044;-54
2020/12/13 04:29:46;;;;;;;;;;;19.10;40.30;;;;;;491665;240;981;-54
2020/12/13 04:31:47;;;;;;;;;;;19.20;40.30;;;;;;491613;240;1026;-54
2020/12/13 04:33:48;;;;;;;;;;;19.20;40.30;;;;;;491764;240;1170;-53
2020/12/13 04:35:50;;;;;;;;;;;19.10;40.20;;;;;;491618;240;1218;-54
2020/12/13 04:37:51;;;;;;;;;;;19.20;40.20;;;;;;491596;240;1089;-54
2020/12/13 04:39:52;;;;;;;;;;;19.20;40.20;;;;;;492063;240;1193;-54
2020/12/13 04:41:54;;;;;;;;;;;19.20;40.20;;;;;;491623;240;2200;-54
2020/12/13 04:43:55;;;;;;;;;;;19.20;40.20;;;;;;491763;240;1104;-53
2020/12/13 04:45:56;;;;;;;;;;;19.20;40.20;;;;;;491637;240;1037;-54
2020/12/13 04:47:57;;;;;;;;;;;19.30;40.20;;;;;;491630;240;1158;-54
2020/12/13 04:49:59;;;;;;;;;;;19.30;40.20;;;;;;491621;240;1137;-54
2020/12/13 04:52:00;;;;;;;;;;;19.30;40.20;;;;;;491806;240;1207;-54
2020/12/13 04:54:01;;;;;;;;;;;19.30;40.20;;;;;;491690;240;1054;-54
2020/12/13 04:56:03;;;;;;;;;;;19.30;40.20;;;;;;491948;240;1204;-54
2020/12/13 04:58:04;;;;;;;;;;;19.30;40.10;;;;;;491766;240;1161;-54
2020/12/13 05:00:05;;;;;;;;;;;19.40;40.20;;;;;;491631;240;1327;-54
2020/12/13 05:02:06;;;;;;;;;;;19.40;39.90;;;;;;491746;240;2187;-53
2020/12/13 05:04:08;;;;;;;;;;;19.50;39.80;;;;;;491842;240;1029;-54
2020/12/13 05:06:09;;;;;;;;;;;19.50;39.80;;;;;;491630;240;1307;-53
2020/12/13 05:08:10;;;;;;;;;;;19.40;39.80;;;;;;491741;240;1046;-54
2020/12/13 05:10:11;;;;;;;;;;;19.40;39.90;;;;;;491628;240;1141;-54
2020/12/13 05:12:13;;;;;;;;;;;19.30;39.90;;;;;;491758;240;986;-53
2020/12/13 05:14:14;;;;;;;;;;;19.30;40.10;;;;;;491665;240;1216;-54
2020/12/13 05:16:15;;;;;;;;;;;19.30;40.20;;;;;;491641;240;1051;-54
2020/12/13 05:18:17;;;;;;;;;;;19.20;40.20;;;;;;491647;240;1028;-54
2020/12/13 05:20:18;;;;;;;;;;;19.20;40.30;;;;;;491728;240;1128;-54
2020/12/13 05:22:19;;;;;;;;;;;19.10;40.30;;;;;;491890;240;2191;-54
2020/12/13 05:24:20;;;;;;;;;;;19.10;40.40;;;;;;491687;240;1101;-54
2020/12/13 05:26:22;;;;;;;;;;;19.10;40.50;;;;;;491861;240;1059;-54
2020/12/13 05:28:23;;;;;;;;;;;19.10;40.60;;;;;;491719;240;967;-54
2020/12/13 05:30:24;;;;;;;;;;;19.00;40.60;;;;;;491583;240;1056;-54
2020/12/13 05:32:26;;;;;;;;;;;19.00;40.70;;;;;;491649;240;989;-53
2020/12/13 05:34:27;;;;;;;;;;;18.90;40.70;;;;;;491682;240;934;-54
2020/12/13 05:36:29;;;;;;;;;;;18.90;40.80;;;;;;491688;240;1190;-54
2020/12/13 05:38:29;;;;;;;;;;;18.90;40.90;;;;;;491684;240;1074;-54
2020/12/13 05:40:31;;;;;;;;;;;18.80;40.90;;;;;;491786;240;987;-54
2020/12/13 05:42:34;;;;;;;;;;;18.80;41.00;;;;;;491979;240;2200;-54
2020/12/13 05:44:55;;;;;;;;;;;18.80;41.00;;;;;;491696;241;2622;-54
2020/12/13 05:46:57;;;;;;;;;;;18.80;41.10;;;;;;491557;242;2174;-54
2020/12/13 05:49:08;;;;;;;;;;;18.80;41.10;;;;;;491805;241;1427;-54
2020/12/13 05:51:18;;;;;;;;;;;18.70;41.10;;;;;;491545;242;2268;-54
2020/12/13 05:53:16;;;;;;;;;;;18.70;41.20;;;;;;491621;242;2048;-53
2020/12/13 05:55:17;;;;;;;;;;;18.60;41.20;;;;;;491796;240;1086;-53
2020/12/13 05:57:19;;;;;;;;;;;18.60;41.30;;;;;;491973;240;1068;-53
2020/12/13 05:59:20;;;;;;;;;;;18.60;41.30;;;;;;491597;240;1050;-54
2020/12/13 06:01:21;;;;;;;;;;;18.60;41.40;;;;;;491563;240;1080;-54
2020/12/13 06:03:22;;;;;;;;;;;18.60;41.40;;;;;;491742;240;2187;-54
2020/12/13 06:05:24;;;;;;;;;;;18.50;41.40;;;;;;491612;240;1285;-54
2020/12/13 06:07:25;;;;;;;;;;;18.50;41.40;;;;;;491610;240;1172;-54
2020/12/13 06:09:26;;;;;;;;;;;18.50;41.50;;;;;;492043;240;1256;-54
2020/12/13 06:11:27;;;;;;;;;;;18.50;41.50;;;;;;491650;240;1094;-53
2020/12/13 06:13:29;;;;;;;;;;;18.50;41.60;;;;;;491792;240;981;-54
2020/12/13 06:15:30;;;;;;;;;;;18.40;41.60;;;;;;491645;240;1048;-54
2020/12/13 06:17:31;;;;;;;;;;;18.40;41.60;;;;;;491785;240;1442;-54
2020/12/13 06:19:33;;;;;;;;;;;18.40;41.60;;;;;;491631;240;1067;-53
2020/12/13 06:21:34;;;;;;;;;;;18.40;41.70;;;;;;491614;240;2180;-54
2020/12/13 06:23:35;;;;;;;;;;;18.40;41.70;;;;;;491719;240;984;-54
2020/12/13 06:25:36;;;;;;;;;;;18.40;41.70;;;;;;491915;240;1056;-53
2020/12/13 06:27:38;;;;;;;;;;;18.30;41.70;;;;;;491639;240;982;-53
2020/12/13 06:29:39;;;;;;;;;;;18.30;41.70;;;;;;492002;240;998;-54
2020/12/13 06:31:40;;;;;;;;;;;18.30;41.70;;;;;;491673;240;1167;-53
2020/12/13 06:33:42;;;;;;;;;;;18.30;41.80;;;;;;491658;240;1093;-53
2020/12/13 06:35:43;;;;;;;;;;;18.30;41.80;;;;;;491658;239;1337;-54
2020/12/13 06:37:44;;;;;;;;;;;18.30;41.80;;;;;;491859;240;1072;-54
2020/12/13 06:39:45;;;;;;;;;;;18.30;41.90;;;;;;491939;240;1157;-54
2020/12/13 06:41:47;;;;;;;;;;;18.30;41.90;;;;;;491658;240;2180;-53
2020/12/13 06:43:48;;;;;;;;;;;18.20;41.80;;;;;;491911;240;1068;-54
2020/12/13 06:45:49;;;;;;;;;;;18.30;41.90;;;;;;491609;240;1322;-54
2020/12/13 06:47:50;;;;;;;;;;;18.20;41.90;;;;;;491768;240;1044;-53
2020/12/13 06:49:52;;;;;;;;;;;18.20;41.90;;;;;;491624;240;1234;-54
2020/12/13 06:51:53;;;;;;;;;;;18.20;41.90;;;;;;491815;240;1187;-53
2020/12/13 06:53:54;;;;;;;;;;;18.20;41.90;;;;;;491753;240;1059;-54
2020/12/13 06:55:56;;;;;;;;;;;18.20;42.00;;;;;;491613;240;1349;-53
2020/12/13 06:57:57;;;;;;;;;;;18.20;42.00;;;;;;491719;240;1070;-53
2020/12/13 06:59:58;;;;;;;;;;;18.20;42.00;;;;;;491624;240;1089;-53
2020/12/13 07:01:59;;;;;;;;;;;18.20;42.00;;;;;;491762;240;2199;-53
2020/12/13 07:04:01;;;;;;;;;;;18.20;42.00;;;;;;491582;240;1123;-53
2020/12/13 07:06:05;;;;;;;;;;;18.20;42.00;;;;;;491626;240;1301;-53
2020/12/13 07:08:03;;;;;;;;;;;18.10;42.00;;;;;;491730;241;1841;-54
2020/12/13 07:10:04;;;;;;;;;;;18.10;42.00;;;;;;491647;240;1199;-54
2020/12/13 07:12:06;;;;;;;;;;;18.10;42.00;;;;;;491583;240;1258;-53
2020/12/13 07:14:08;;;;;;;;;;;18.10;42.10;;;;;;491625;240;1050;-54
2020/12/13 07:16:11;;;;;;;;;;;18.10;42.10;;;;;;491567;240;2283;-53
2020/12/13 07:18:10;;;;;;;;;;;18.10;42.10;;;;;;491585;240;1363;-54
2020/12/13 07:20:11;;;;;;;;;;;18.10;42.10;;;;;;491572;240;1273;-54
2020/12/13 07:22:12;;;;;;;;;;;18.10;42.10;;;;;;491562;240;2192;-53
2020/12/13 07:24:13;;;;;;;;;;;18.10;42.10;;;;;;491620;240;1038;-54
2020/12/13 07:26:15;;;;;;;;;;;18.00;42.10;;;;;;491572;240;1349;-53
2020/12/13 07:28:16;;;;;;;;;;;18.10;42.10;;;;;;491646;240;1074;-53
2020/12/13 07:30:17;;;;;;;;;;;18.10;42.20;;;;;;491731;240;1071;-53
2020/12/13 07:32:19;;;;;;;;;;;18.00;42.10;;;;;;491771;240;1181;-54
2020/12/13 07:34:20;;;;;;;;;;;18.00;42.10;;;;;;491651;240;1052;-54
2020/12/13 07:36:21;;;;;;;;;;;18.00;40.90;;;;;;491629;240;1351;-54
2020/12/13 07:38:22;;;;;;;;;;;18.00;42.20;;;;;;491639;240;1088;-54
2020/12/13 07:40:24;;;;;;;;;;;18.00;42.20;;;;;;491622;240;1078;-53
2020/12/13 07:42:25;;;;;;;;;;;18.00;42.20;;;;;;491605;240;2188;-54
2020/12/13 07:44:26;;;;;;;;;;;18.00;42.20;;;;;;491633;240;1026;-54
2020/12/13 07:46:27;;;;;;;;;;;18.00;42.20;;;;;;491642;240;1245;-54
2020/12/13 07:48:29;;;;;;;;;;;18.00;42.10;;;;;;491781;240;1030;-54
2020/12/13 07:50:34;;;;;;;;;;;18.00;42.10;;;;;;491608;240;1160;-54
2020/12/13 07:52:31;;;;;;;;;;;18.00;42.10;;;;;;491790;241;1807;-54
2020/12/13 07:54:33;;;;;;;;;;;18.10;42.10;;;;;;491625;240;1063;-54
2020/12/13 07:56:34;;;;;;;;;;;18.10;42.10;;;;;;491732;240;2273;-53
2020/12/13 07:58:35;;;;;;;;;;;18.10;42.10;;;;;;491618;240;1070;-54
2020/12/13 08:00:36;;;;;;;;;;;18.10;42.00;;;;;;491975;240;1097;-54
2020/12/13 08:02:38;;;;;;;;;;;18.20;42.00;;;;;;491589;240;2197;-54
2020/12/13 08:04:39;;;;;;;;;;;18.20;41.90;;;;;;491612;240;1060;-54
2020/12/13 08:06:40;;;;;;;;;;;18.20;41.90;;;;;;491597;240;1165;-54
2020/12/13 08:08:42;;;;;;;;;;;18.20;41.90;;;;;;491776;240;1085;-54
2020/12/13 08:10:43;;;;;;;;;;;18.20;41.80;;;;;;491904;240;1131;-54
2020/12/13 08:12:45;;;;;;;;;;;18.30;41.80;;;;;;491637;240;1051;-54
2020/12/13 08:14:46;;;;;;;;;;;18.30;41.80;;;;;;491642;240;1060;-54
2020/12/13 08:16:47;;;;;;;;;;;18.30;41.70;;;;;;491769;240;1123;-54
2020/12/13 08:18:48;;;;;;;;;;;18.30;41.70;;;;;;491835;240;1046;-53
2020/12/13 08:20:50;;;;;;;;;;;18.30;41.70;;;;;;491711;240;1333;-54
2020/12/13 08:22:51;;;;;;;;;;;18.40;41.70;;;;;;491613;240;2188;-54
2020/12/13 08:24:52;;;;;;;;;;;18.40;41.60;;;;;;491634;240;1421;-53
2020/12/13 08:26:54;;;;;;;;;;;18.40;41.60;;;;;;491627;240;1187;-54
2020/12/13 08:28:55;;;;;;;;;;;18.40;41.50;;;;;;491598;240;1063;-54
2020/12/13 08:30:56;;;;;;;;;;;18.40;41.50;;;;;;491771;240;1232;-54
2020/12/13 08:32:57;;;;;;;;;;;18.50;41.50;;;;;;491670;240;1045;-54
2020/12/13 08:34:59;;;;;;;;;;;18.50;41.50;;;;;;491601;240;1225;-54
2020/12/13 08:37:00;;;;;;;;;;;18.50;41.50;;;;;;491586;240;1161;-54
2020/12/13 08:39:01;;;;;;;;;;;18.50;41.40;;;;;;491657;240;1069;-54
2020/12/13 08:41:02;;;;;;;;;;;18.60;41.40;;;;;;491972;240;1049;-54
2020/12/13 08:43:04;;;;;;;;;;;18.60;41.40;;;;;;491574;240;2196;-54
2020/12/13 08:45:05;;;;;;;;;;;18.60;41.40;;;;;;491574;240;1037;-54
2020/12/13 08:47:06;;;;;;;;;;;18.60;41.30;;;;;;491644;240;1065;-54
2020/12/13 08:49:08;;;;;;;;;;;18.60;41.30;;;;;;491570;240;1053;-54
2020/12/13 08:51:09;;;;;;;;;;;18.70;41.30;;;;;;491585;240;1057;-54
2020/12/13 08:53:10;;;;;;;;;;;18.70;41.30;;;;;;491832;240;1245;-54
2020/12/13 08:55:11;;;;;;;;;;;18.70;41.30;;;;;;491617;240;941;-54
2020/12/13 08:57:13;;;;;;;;;;;18.70;41.20;;;;;;491626;240;1054;-53
2020/12/13 08:59:14;;;;;;;;;;;18.70;41.20;;;;;;491641;240;1304;-54
2020/12/13 09:01:15;;;;;;;;;;;18.70;41.20;;;;;;491603;240;1141;-53
2020/12/13 09:03:17;;;;;;;;;;;18.70;41.10;;;;;;491622;240;2171;-54
2020/12/13 09:05:18;;;;;;;;;;;18.80;41.10;;;;;;491612;240;1255;-54
2020/12/13 09:07:19;;;;;;;;;;;18.80;41.10;;;;;;491861;240;1203;-53
2020/12/13 09:09:21;;;;;;;;;;;18.80;41.10;;;;;;491676;240;1076;-54
2020/12/13 09:11:22;;;;;;;;;;;18.80;41.10;;;;;;491648;240;1186;-53
2020/12/13 09:13:23;;;;;;;;;;;18.80;41.10;;;;;;491742;240;1118;-54
2020/12/13 09:15:25;;;;;;;;;;;18.80;41.00;;;;;;491716;240;1557;-54
2020/12/13 09:17:26;;;;;;;;;;;18.90;41.10;;;;;;491689;240;1119;-54
2020/12/13 09:19:27;;;;;;;;;;;18.90;41.00;;;;;;491884;240;1063;-54
2020/12/13 09:21:29;;;;;;;;;;;18.90;41.00;;;;;;491872;240;1088;-54
2020/12/13 09:23:31;;;;;;;;;;;18.90;41.00;;;;;;491572;240;2212;-54
2020/12/13 09:25:31;;;;;;;;;;;18.90;40.90;;;;;;491914;240;2161;-54
2020/12/13 09:27:32;;;;;;;;;;;18.90;40.90;;;;;;491826;240;1061;-54
2020/12/13 09:29:34;;;;;;;;;;;18.90;40.90;;;;;;491692;240;1043;-54
2020/12/13 09:31:35;;;;;;;;;;;19.00;40.90;;;;;;491675;240;1049;-54
2020/12/13 09:33:36;;;;;;;;;;;19.00;40.90;;;;;;491624;240;1034;-54
2020/12/13 09:35:38;;;;;;;;;;;19.00;40.90;;;;;;491595;240;1043;-54
2020/12/13 09:37:39;;;;;;;;;;;19.00;40.90;;;;;;491739;240;1272;-54
2020/12/13 09:39:41;;;;;;;;;;;19.00;40.90;;;;;;491634;240;1178;-54
2020/12/13 09:41:42;;;;;;;;;;;19.00;40.80;;;;;;491579;240;1032;-54
2020/12/13 09:43:43;;;;;;;;;;;19.00;40.80;;;;;;491918;240;2200;-53
2020/12/13 09:45:44;;;;;;;;;;;19.00;40.80;;;;;;491660;240;1063;-54
2020/12/13 09:47:46;;;;;;;;;;;19.00;40.80;;;;;;491627;240;1046;-53
2020/12/13 09:49:47;;;;;;;;;;;19.10;40.80;;;;;;491695;240;1073;-54
2020/12/13 09:51:48;;;;;;;;;;;19.10;40.80;;;;;;491717;240;963;-54
2020/12/13 09:53:50;;;;;;;;;;;19.10;40.80;;;;;;491658;240;1181;-54
2020/12/13 09:55:51;;;;;;;;;;;19.10;40.80;;;;;;491948;240;1081;-54
2020/12/13 09:57:52;;;;;;;;;;;19.10;40.70;;;;;;491888;240;1074;-54
2020/12/13 09:59:53;;;;;;;;;;;19.10;40.70;;;;;;491640;240;1003;-54
2020/12/13 10:01:55;;;;;;;;;;;19.10;40.70;;;;;;491719;240;1043;-53
2020/12/13 10:03:56;;;;;;;;;;;19.20;40.70;;;;;;491642;240;2179;-54
2020/12/13 10:06:11;;;;;;;;;;;19.20;40.70;;;;;;491611;240;999;-54
2020/12/13 10:10:23;;;;;;;;;;;19.10;40.60;;;;;;491620;242;1059;-54
2020/12/13 10:12:25;;;;;;;;;;;19.20;40.70;;;;;;491609;240;1070;-54
2020/12/13 10:14:26;;;;;;;;;;;19.20;40.70;;;;;;491972;240;1038;-53
2020/12/13 10:16:28;;;;;;;;;;;19.20;40.60;;;;;;491656;240;1078;-54
2020/12/13 10:18:29;;;;;;;;;;;19.20;40.60;;;;;;491869;240;999;-53
2020/12/13 10:20:30;;;;;;;;;;;19.30;40.60;;;;;;491852;240;1059;-54
2020/12/13 10:22:31;;;;;;;;;;;19.20;40.60;;;;;;491655;240;1055;-54
2020/12/13 10:24:33;;;;;;;;;;;19.20;40.60;;;;;;491746;240;2192;-54
2020/12/13 10:26:35;;;;;;;;;;;19.20;40.60;;;;;;491756;240;1025;-54
2020/12/13 10:28:35;;;;;;;;;;;19.30;40.60;;;;;;491593;242;2154;-53
2020/12/13 10:30:37;;;;;;;;;;;19.30;40.50;;;;;;491611;240;1244;-54
2020/12/13 10:32:38;;;;;;;;;;;19.30;40.50;;;;;;492071;240;1081;-54
2020/12/13 10:34:40;;;;;;;;;;;19.40;40.30;;;;;;491979;240;970;-54
2020/12/13 10:36:41;;;;;;;;;;;19.40;40.20;;;;;;491776;240;1039;-54
2020/12/13 10:38:42;;;;;;;;;;;19.40;40.20;;;;;;491617;240;1278;-54
2020/12/13 10:40:43;;;;;;;;;;;19.40;40.30;;;;;;491533;240;1082;-54
2020/12/13 10:42:45;;;;;;;;;;;19.30;40.30;;;;;;491639;240;1091;-53
2020/12/13 10:44:46;;;;;;;;;;;19.30;40.50;;;;;;491604;240;2212;-54
2020/12/13 10:46:47;;;;;;;;;;;19.30;40.50;;;;;;491559;240;1371;-53
2020/12/13 10:48:48;;;;;;;;;;;19.20;40.60;;;;;;491604;240;1188;-54
2020/12/13 10:50:50;;;;;;;;;;;19.20;40.70;;;;;;491602;240;1050;-53
2020/12/13 10:52:53;;;;;;;;;;;19.10;40.80;;;;;;491582;240;1193;-53
2020/12/13 10:54:53;;;;;;;;;;;19.10;40.80;;;;;;491765;241;1569;-54
2020/12/13 10:56:54;;;;;;;;;;;19.10;40.90;;;;;;491618;240;1300;-54
2020/12/13 10:58:55;;;;;;;;;;;19.10;41.00;;;;;;491627;240;1212;-54
2020/12/13 11:00:57;;;;;;;;;;;19.00;41.00;;;;;;491580;240;1113;-54
2020/12/13 11:02:58;;;;;;;;;;;19.00;41.10;;;;;;491558;240;1389;-53
2020/12/13 11:04:59;;;;;;;;;;;19.00;41.20;;;;;;491872;240;2184;-54
2020/12/13 11:07:01;;;;;;;;;;;18.90;41.20;;;;;;491606;240;1219;-54
2020/12/13 11:09:04;;;;;;;;;;;18.90;41.20;;;;;;491914;240;1161;-53
2020/12/13 11:11:03;;;;;;;;;;;18.90;41.30;;;;;;491530;242;2152;-53
2020/12/13 11:13:04;;;;;;;;;;;18.80;41.30;;;;;;491876;240;1156;-54
2020/12/13 11:15:07;;;;;;;;;;;18.80;41.40;;;;;;491978;240;1056;-54
2020/12/13 11:17:07;;;;;;;;;;;18.80;41.40;;;;;;491620;240;2058;-53
2020/12/13 11:19:09;;;;;;;;;;;18.70;41.50;;;;;;491702;240;1074;-54
2020/12/13 11:21:10;;;;;;;;;;;18.70;41.50;;;;;;491861;240;1935;-53
2020/12/13 11:23:11;;;;;;;;;;;18.70;41.60;;;;;;491706;240;1166;-54
2020/12/13 11:25:12;;;;;;;;;;;18.70;41.60;;;;;;491578;240;2191;-54
2020/12/13 11:27:13;;;;;;;;;;;18.70;41.70;;;;;;491645;240;1177;-53
2020/12/13 11:29:15;;;;;;;;;;;18.60;41.70;;;;;;491616;240;1059;-54
2020/12/13 11:31:16;;;;;;;;;;;18.60;41.80;;;;;;491711;240;1079;-55
2020/12/13 11:33:17;;;;;;;;;;;18.60;41.80;;;;;;491759;240;1184;-54
2020/12/13 11:35:19;;;;;;;;;;;18.50;41.80;;;;;;491593;240;1019;-54
2020/12/13 11:37:20;;;;;;;;;;;18.50;41.80;;;;;;491574;238;1349;-54
2020/12/13 11:39:21;;;;;;;;;;;18.50;41.90;;;;;;491851;240;1175;-54
2020/12/13 11:41:22;;;;;;;;;;;18.50;41.90;;;;;;491589;240;1098;-53
2020/12/13 11:43:24;;;;;;;;;;;18.50;41.90;;;;;;491597;240;2184;-54
2020/12/13 11:45:25;;;;;;;;;;;18.50;42.00;;;;;;491737;240;1066;-54
2020/12/13 11:47:26;;;;;;;;;;;18.40;42.00;;;;;;491754;240;1057;-54
2020/12/13 11:49:27;;;;;;;;;;;18.40;42.00;;;;;;491646;240;1094;-53
2020/12/13 11:51:29;;;;;;;;;;;18.40;42.00;;;;;;491849;240;1096;-54
2020/12/13 11:53:30;;;;;;;;;;;18.40;42.10;;;;;;491602;240;1026;-54
2020/12/13 11:55:31;;;;;;;;;;;18.40;42.10;;;;;;491628;240;1168;-54
2020/12/13 11:57:32;;;;;;;;;;;18.30;42.10;;;;;;491639;240;1132;-54
2020/12/13 11:59:34;;;;;;;;;;;18.30;42.10;;;;;;491651;240;988;-54